sensor_id;sensor_type;location;lat;lon;timestamp;temperature;humidity
4701;DHT22;8724;51.272;6.554;2023-04-24T00:00:38;14.70;99.90
4701;DHT22;8724;51.272;6.554;2023-04-24T00:03:07;14.70;99.90
4701;DHT22;8724;51.272;6.554;2023-04-24T00:05:36;14.70;99.90
4701;DHT22;8724;51.272;6.554;2023-04-24T00:08:07;14.70;99.90
4701;DHT22;8724;51.272;6.554;2023-04-24T00:10:35;14.70;99.90
4701;DHT22;8724;51.272;6.554;2023-04-24T00:13:03;14.70;99.90
4701;DHT22;8724;51.272;6.554;2023-04-24T00:15:33;14.70;99.90
4701;DHT22;8724;51.272;6.554;2023-04-24T00:18:01;14.60;99.90
4701;DHT22;8724;51.272;6.554;2023-04-24T00:20:30;14.60;99.90
4701;DHT22;8724;51.272;6.554;2023-04-24T00:22:59;14.60;99.90
4701;DHT22;8724;51.272;6.554;2023-04-24T00:25:27;14.60;99.90
4701;DHT22;8724;51.272;6.554;2023-04-24T00:27:55;14.50;99.90
4701;DHT22;8724;51.272;6.554;2023-04-24T00:30:24;14.20;99.90
4701;DHT22;8724;51.272;6.554;2023-04-24T00:32:53;14.50;99.90
4701;DHT22;8724;51.272;6.554;2023-04-24T00:35:23;14.40;99.90
4701;DHT22;8724;51.272;6.554;2023-04-24T00:37:51;14.40;99.90
4701;DHT22;8724;51.272;6.554;2023-04-24T00:40:19;14.40;99.90
4701;DHT22;8724;51.272;6.554;2023-04-24T00:42:48;14.30;99.90
4701;DHT22;8724;51.272;6.554;2023-04-24T00:45:17;14.30;99.90
4701;DHT22;8724;51.272;6.554;2023-04-24T00:47:45;14.30;99.90
4701;DHT22;8724;51.272;6.554;2023-04-24T00:50:16;14.30;99.90
4701;DHT22;8724;51.272;6.554;2023-04-24T00:52:44;14.20;99.90
4701;DHT22;8724;51.272;6.554;2023-04-24T00:55:13;14.20;99.90
4701;DHT22;8724;51.272;6.554;2023-04-24T00:57:43;14.20;99.90
4701;DHT22;8724;51.272;6.554;2023-04-24T01:00:12;14.20;99.90
4701;DHT22;8724;51.272;6.554;2023-04-24T01:02:43;14.10;99.90
4701;DHT22;8724;51.272;6.554;2023-04-24T01:05:13;14.10;99.90
4701;DHT22;8724;51.272;6.554;2023-04-24T01:07:45;14.10;99.90
4701;DHT22;8724;51.272;6.554;2023-04-24T01:10:16;14.10;99.90
4701;DHT22;8724;51.272;6.554;2023-04-24T01:12:46;14.10;99.90
4701;DHT22;8724;51.272;6.554;2023-04-24T01:15:14;14.00;99.90
4701;DHT22;8724;51.272;6.554;2023-04-24T01:17:42;14.00;99.90
4701;DHT22;8724;51.272;6.554;2023-04-24T01:20:11;14.00;99.90
4701;DHT22;8724;51.272;6.554;2023-04-24T01:22:42;14.00;99.90
4701;DHT22;8724;51.272;6.554;2023-04-24T01:25:10;14.00;99.90
4701;DHT22;8724;51.272;6.554;2023-04-24T01:27:39;13.90;99.90
4701;DHT22;8724;51.272;6.554;2023-04-24T01:30:08;14.00;99.90
4701;DHT22;8724;51.272;6.554;2023-04-24T01:32:37;13.90;99.90
4701;DHT22;8724;51.272;6.554;2023-04-24T01:35:07;14.20;99.90
4701;DHT22;8724;51.272;6.554;2023-04-24T01:37:36;13.90;99.90
4701;DHT22;8724;51.272;6.554;2023-04-24T01:40:07;13.90;99.90
4701;DHT22;8724;51.272;6.554;2023-04-24T01:42:36;13.90;99.90
4701;DHT22;8724;51.272;6.554;2023-04-24T01:45:05;13.90;99.90
4701;DHT22;8724;51.272;6.554;2023-04-24T01:47:34;13.90;99.90
4701;DHT22;8724;51.272;6.554;2023-04-24T01:50:02;13.80;99.90
4701;DHT22;8724;51.272;6.554;2023-04-24T01:52:31;13.80;99.90
4701;DHT22;8724;51.272;6.554;2023-04-24T01:55:00;13.80;99.90
4701;DHT22;8724;51.272;6.554;2023-04-24T01:57:31;13.80;99.90
4701;DHT22;8724;51.272;6.554;2023-04-24T01:59:59;13.70;99.90
4701;DHT22;8724;51.272;6.554;2023-04-24T02:02:28;13.70;99.90
4701;DHT22;8724;51.272;6.554;2023-04-24T02:04:57;13.80;99.90
4701;DHT22;8724;51.272;6.554;2023-04-24T02:07:25;13.80;99.90
4701;DHT22;8724;51.272;6.554;2023-04-24T02:09:53;13.80;99.90
4701;DHT22;8724;51.272;6.554;2023-04-24T02:12:22;13.70;99.90
4701;DHT22;8724;51.272;6.554;2023-04-24T02:14:52;13.70;99.90
4701;DHT22;8724;51.272;6.554;2023-04-24T02:17:20;13.70;99.90
4701;DHT22;8724;51.272;6.554;2023-04-24T02:19:49;13.70;99.90
4701;DHT22;8724;51.272;6.554;2023-04-24T02:22:17;13.70;99.90
4701;DHT22;8724;51.272;6.554;2023-04-24T02:24:46;13.70;99.90
4701;DHT22;8724;51.272;6.554;2023-04-24T02:27:15;13.70;99.90
4701;DHT22;8724;51.272;6.554;2023-04-24T02:29:43;13.70;99.90
4701;DHT22;8724;51.272;6.554;2023-04-24T02:32:13;13.60;99.90
4701;DHT22;8724;51.272;6.554;2023-04-24T02:34:43;13.70;99.90
4701;DHT22;8724;51.272;6.554;2023-04-24T02:37:12;13.60;99.90
4701;DHT22;8724;51.272;6.554;2023-04-24T02:39:40;13.60;99.90
4701;DHT22;8724;51.272;6.554;2023-04-24T02:42:08;13.60;99.90
4701;DHT22;8724;51.272;6.554;2023-04-24T02:44:37;13.60;99.90
4701;DHT22;8724;51.272;6.554;2023-04-24T02:47:05;13.60;99.90
4701;DHT22;8724;51.272;6.554;2023-04-24T02:49:35;13.60;99.90
4701;DHT22;8724;51.272;6.554;2023-04-24T02:52:04;13.60;99.90
4701;DHT22;8724;51.272;6.554;2023-04-24T02:54:32;13.90;99.90
4701;DHT22;8724;51.272;6.554;2023-04-24T02:57:01;13.60;99.90
4701;DHT22;8724;51.272;6.554;2023-04-24T02:59:29;13.60;99.90
4701;DHT22;8724;51.272;6.554;2023-04-24T03:01:58;13.60;99.90
4701;DHT22;8724;51.272;6.554;2023-04-24T03:04:27;13.60;99.90
4701;DHT22;8724;51.272;6.554;2023-04-24T03:06:56;13.60;99.90
4701;DHT22;8724;51.272;6.554;2023-04-24T03:09:25;13.60;99.90
4701;DHT22;8724;51.272;6.554;2023-04-24T03:11:54;13.60;99.90
4701;DHT22;8724;51.272;6.554;2023-04-24T03:14:24;13.60;99.90
4701;DHT22;8724;51.272;6.554;2023-04-24T03:16:52;13.50;99.90
4701;DHT22;8724;51.272;6.554;2023-04-24T03:19:20;13.60;99.90
4701;DHT22;8724;51.272;6.554;2023-04-24T03:22:03;13.60;99.90
4701;DHT22;8724;51.272;6.554;2023-04-24T03:24:33;13.50;99.90
4701;DHT22;8724;51.272;6.554;2023-04-24T03:27:01;13.50;99.90
4701;DHT22;8724;51.272;6.554;2023-04-24T03:29:49;13.50;99.90
4701;DHT22;8724;51.272;6.554;2023-04-24T03:32:21;13.60;99.90
4701;DHT22;8724;51.272;6.554;2023-04-24T03:34:51;13.50;99.90
4701;DHT22;8724;51.272;6.554;2023-04-24T03:37:21;13.60;99.90
4701;DHT22;8724;51.272;6.554;2023-04-24T03:40:08;13.50;99.90
4701;DHT22;8724;51.272;6.554;2023-04-24T03:42:38;13.60;99.90
4701;DHT22;8724;51.272;6.554;2023-04-24T03:45:07;13.60;99.90
4701;DHT22;8724;51.272;6.554;2023-04-24T03:47:38;13.60;99.90
4701;DHT22;8724;51.272;6.554;2023-04-24T03:50:08;13.60;99.90
4701;DHT22;8724;51.272;6.554;2023-04-24T03:52:41;13.60;99.90
4701;DHT22;8724;51.272;6.554;2023-04-24T03:55:12;13.50;99.90
4701;DHT22;8724;51.272;6.554;2023-04-24T03:57:45;13.50;99.90
4701;DHT22;8724;51.272;6.554;2023-04-24T04:00:20;13.70;99.90
4701;DHT22;8724;51.272;6.554;2023-04-24T04:03:00;13.50;99.90
4701;DHT22;8724;51.272;6.554;2023-04-24T04:05:29;13.50;99.90
4701;DHT22;8724;51.272;6.554;2023-04-24T04:07:58;13.60;99.90
4701;DHT22;8724;51.272;6.554;2023-04-24T04:10:27;13.60;99.90
4701;DHT22;8724;51.272;6.554;2023-04-24T04:12:56;13.50;99.90
4701;DHT22;8724;51.272;6.554;2023-04-24T04:15:24;13.50;99.90
4701;DHT22;8724;51.272;6.554;2023-04-24T04:17:52;13.50;99.90
4701;DHT22;8724;51.272;6.554;2023-04-24T04:20:20;13.50;99.90
4701;DHT22;8724;51.272;6.554;2023-04-24T04:22:49;13.50;99.90
4701;DHT22;8724;51.272;6.554;2023-04-24T04:25:26;13.50;99.90
4701;DHT22;8724;51.272;6.554;2023-04-24T04:27:54;13.40;99.90
4701;DHT22;8724;51.272;6.554;2023-04-24T04:30:22;13.40;99.90
4701;DHT22;8724;51.272;6.554;2023-04-24T04:32:57;13.40;99.90
4701;DHT22;8724;51.272;6.554;2023-04-24T04:35:26;13.50;99.90
4701;DHT22;8724;51.272;6.554;2023-04-24T04:37:55;13.70;99.90
4701;DHT22;8724;51.272;6.554;2023-04-24T04:40:45;13.40;99.90
4701;DHT22;8724;51.272;6.554;2023-04-24T04:43:15;13.40;99.90
4701;DHT22;8724;51.272;6.554;2023-04-24T04:45:49;13.40;99.90
4701;DHT22;8724;51.272;6.554;2023-04-24T04:48:41;13.40;99.90
4701;DHT22;8724;51.272;6.554;2023-04-24T04:51:10;13.30;99.90
4701;DHT22;8724;51.272;6.554;2023-04-24T04:53:38;13.30;99.90
4701;DHT22;8724;51.272;6.554;2023-04-24T04:56:08;13.30;99.90
4701;DHT22;8724;51.272;6.554;2023-04-24T04:58:40;13.30;99.90
4701;DHT22;8724;51.272;6.554;2023-04-24T05:01:12;13.30;99.90
4701;DHT22;8724;51.272;6.554;2023-04-24T05:03:44;13.30;99.90
4701;DHT22;8724;51.272;6.554;2023-04-24T05:06:15;13.20;99.90
4701;DHT22;8724;51.272;6.554;2023-04-24T05:08:45;13.20;99.90
4701;DHT22;8724;51.272;6.554;2023-04-24T05:11:27;13.20;99.90
4701;DHT22;8724;51.272;6.554;2023-04-24T05:13:57;13.20;99.90
4701;DHT22;8724;51.272;6.554;2023-04-24T05:16:34;13.20;99.90
4701;DHT22;8724;51.272;6.554;2023-04-24T05:19:05;13.10;99.90
4701;DHT22;8724;51.272;6.554;2023-04-24T05:21:38;13.20;99.90
4701;DHT22;8724;51.272;6.554;2023-04-24T05:24:08;13.10;99.90
4701;DHT22;8724;51.272;6.554;2023-04-24T05:27:10;13.10;99.90
4701;DHT22;8724;51.272;6.554;2023-04-24T05:29:40;13.10;99.90
4701;DHT22;8724;51.272;6.554;2023-04-24T05:32:09;13.00;99.90
4701;DHT22;8724;51.272;6.554;2023-04-24T05:34:37;13.10;99.90
4701;DHT22;8724;51.272;6.554;2023-04-24T05:37:06;13.10;99.90
4701;DHT22;8724;51.272;6.554;2023-04-24T05:39:36;13.10;99.90
4701;DHT22;8724;51.272;6.554;2023-04-24T05:42:05;13.00;99.90
4701;DHT22;8724;51.272;6.554;2023-04-24T05:44:34;13.00;99.90
4701;DHT22;8724;51.272;6.554;2023-04-24T05:47:03;13.00;99.90
4701;DHT22;8724;51.272;6.554;2023-04-24T05:49:32;13.00;99.90
4701;DHT22;8724;51.272;6.554;2023-04-24T05:52:00;13.00;99.90
4701;DHT22;8724;51.272;6.554;2023-04-24T05:54:31;13.00;99.90
4701;DHT22;8724;51.272;6.554;2023-04-24T05:56:59;13.00;99.90
4701;DHT22;8724;51.272;6.554;2023-04-24T05:59:45;12.90;99.90
4701;DHT22;8724;51.272;6.554;2023-04-24T06:02:14;13.00;99.90
4701;DHT22;8724;51.272;6.554;2023-04-24T06:04:44;13.00;99.90
4701;DHT22;8724;51.272;6.554;2023-04-24T06:07:13;12.90;99.90
4701;DHT22;8724;51.272;6.554;2023-04-24T06:09:43;13.00;99.90
4701;DHT22;8724;51.272;6.554;2023-04-24T06:12:11;13.00;99.90
4701;DHT22;8724;51.272;6.554;2023-04-24T06:14:53;12.90;99.90
4701;DHT22;8724;51.272;6.554;2023-04-24T06:17:29;12.90;99.90
4701;DHT22;8724;51.272;6.554;2023-04-24T06:19:58;12.90;99.90
4701;DHT22;8724;51.272;6.554;2023-04-24T06:22:27;12.90;99.90
4701;DHT22;8724;51.272;6.554;2023-04-24T06:24:55;12.90;99.90
4701;DHT22;8724;51.272;6.554;2023-04-24T06:27:24;12.90;99.90
4701;DHT22;8724;51.272;6.554;2023-04-24T06:29:53;12.80;99.90
4701;DHT22;8724;51.272;6.554;2023-04-24T06:32:22;12.80;99.90
4701;DHT22;8724;51.272;6.554;2023-04-24T06:34:51;12.80;99.90
4701;DHT22;8724;51.272;6.554;2023-04-24T06:37:20;12.80;99.90
4701;DHT22;8724;51.272;6.554;2023-04-24T06:39:48;12.70;99.90
4701;DHT22;8724;51.272;6.554;2023-04-24T06:42:17;12.70;99.90
4701;DHT22;8724;51.272;6.554;2023-04-24T06:44:49;12.70;99.90
4701;DHT22;8724;51.272;6.554;2023-04-24T06:47:18;12.70;99.90
4701;DHT22;8724;51.272;6.554;2023-04-24T06:49:47;12.70;99.90
4701;DHT22;8724;51.272;6.554;2023-04-24T06:52:15;12.70;99.90
4701;DHT22;8724;51.272;6.554;2023-04-24T06:54:43;12.70;99.90
4701;DHT22;8724;51.272;6.554;2023-04-24T06:57:11;12.70;99.90
4701;DHT22;8724;51.272;6.554;2023-04-24T06:59:39;12.70;99.90
4701;DHT22;8724;51.272;6.554;2023-04-24T07:02:08;12.60;99.90
4701;DHT22;8724;51.272;6.554;2023-04-24T07:04:38;12.60;99.90
4701;DHT22;8724;51.272;6.554;2023-04-24T07:07:07;12.60;99.90
4701;DHT22;8724;51.272;6.554;2023-04-24T07:09:36;12.50;99.90
4701;DHT22;8724;51.272;6.554;2023-04-24T07:12:06;12.50;99.90
4701;DHT22;8724;51.272;6.554;2023-04-24T07:14:34;12.40;99.90
4701;DHT22;8724;51.272;6.554;2023-04-24T07:17:02;12.30;99.90
4701;DHT22;8724;51.272;6.554;2023-04-24T07:19:30;12.30;99.90
4701;DHT22;8724;51.272;6.554;2023-04-24T07:22:00;12.30;99.90
4701;DHT22;8724;51.272;6.554;2023-04-24T07:24:30;12.10;99.90
4701;DHT22;8724;51.272;6.554;2023-04-24T07:26:59;12.10;99.90
4701;DHT22;8724;51.272;6.554;2023-04-24T07:29:28;12.00;99.90
4701;DHT22;8724;51.272;6.554;2023-04-24T07:31:56;12.10;99.90
4701;DHT22;8724;51.272;6.554;2023-04-24T07:34:24;12.10;99.90
4701;DHT22;8724;51.272;6.554;2023-04-24T07:36:52;12.00;99.90
4701;DHT22;8724;51.272;6.554;2023-04-24T07:39:22;12.00;99.90
4701;DHT22;8724;51.272;6.554;2023-04-24T07:41:51;12.00;99.90
4701;DHT22;8724;51.272;6.554;2023-04-24T07:44:19;11.90;99.90
4701;DHT22;8724;51.272;6.554;2023-04-24T07:46:48;11.90;99.90
4701;DHT22;8724;51.272;6.554;2023-04-24T07:49:16;11.90;99.90
4701;DHT22;8724;51.272;6.554;2023-04-24T07:51:46;11.90;99.90
4701;DHT22;8724;51.272;6.554;2023-04-24T07:54:14;11.90;99.90
4701;DHT22;8724;51.272;6.554;2023-04-24T07:56:44;11.90;99.90
4701;DHT22;8724;51.272;6.554;2023-04-24T07:59:12;11.90;99.90
4701;DHT22;8724;51.272;6.554;2023-04-24T08:01:40;11.80;99.90
4701;DHT22;8724;51.272;6.554;2023-04-24T08:04:09;11.90;99.90
4701;DHT22;8724;51.272;6.554;2023-04-24T08:06:37;12.00;99.90
4701;DHT22;8724;51.272;6.554;2023-04-24T08:09:06;11.80;99.90
4701;DHT22;8724;51.272;6.554;2023-04-24T08:11:34;11.80;99.90
4701;DHT22;8724;51.272;6.554;2023-04-24T08:14:04;11.80;99.90
4701;DHT22;8724;51.272;6.554;2023-04-24T08:16:32;11.80;99.90
4701;DHT22;8724;51.272;6.554;2023-04-24T08:19:01;11.80;99.90
4701;DHT22;8724;51.272;6.554;2023-04-24T08:21:29;11.80;99.90
4701;DHT22;8724;51.272;6.554;2023-04-24T08:23:58;11.80;99.90
4701;DHT22;8724;51.272;6.554;2023-04-24T08:26:27;11.80;99.90
4701;DHT22;8724;51.272;6.554;2023-04-24T08:28:55;11.90;99.90
4701;DHT22;8724;51.272;6.554;2023-04-24T08:31:25;11.90;99.90
4701;DHT22;8724;51.272;6.554;2023-04-24T08:33:54;11.90;99.90
4701;DHT22;8724;51.272;6.554;2023-04-24T08:36:22;11.70;99.90
4701;DHT22;8724;51.272;6.554;2023-04-24T08:39:02;11.80;99.90
4701;DHT22;8724;51.272;6.554;2023-04-24T08:41:30;11.70;99.90
4701;DHT22;8724;51.272;6.554;2023-04-24T08:44:01;11.90;99.90
4701;DHT22;8724;51.272;6.554;2023-04-24T08:46:31;11.80;99.90
4701;DHT22;8724;51.272;6.554;2023-04-24T08:49:00;11.40;99.90
4701;DHT22;8724;51.272;6.554;2023-04-24T08:51:29;11.10;99.90
4701;DHT22;8724;51.272;6.554;2023-04-24T08:53:58;10.90;99.90
4701;DHT22;8724;51.272;6.554;2023-04-24T08:56:28;10.60;99.90
4701;DHT22;8724;51.272;6.554;2023-04-24T08:58:58;10.60;99.90
4701;DHT22;8724;51.272;6.554;2023-04-24T09:01:26;10.40;99.90
4701;DHT22;8724;51.272;6.554;2023-04-24T09:03:57;10.40;99.90
4701;DHT22;8724;51.272;6.554;2023-04-24T09:06:26;10.60;99.90
4701;DHT22;8724;51.272;6.554;2023-04-24T09:08:55;10.50;99.90
4701;DHT22;8724;51.272;6.554;2023-04-24T09:11:24;10.40;99.90
4701;DHT22;8724;51.272;6.554;2023-04-24T09:13:53;10.40;99.90
4701;DHT22;8724;51.272;6.554;2023-04-24T09:16:22;10.40;99.90
4701;DHT22;8724;51.272;6.554;2023-04-24T09:18:51;10.50;99.90
4701;DHT22;8724;51.272;6.554;2023-04-24T09:21:22;10.50;99.90
4701;DHT22;8724;51.272;6.554;2023-04-24T09:23:58;10.60;99.90
4701;DHT22;8724;51.272;6.554;2023-04-24T09:26:29;10.50;99.90
4701;DHT22;8724;51.272;6.554;2023-04-24T09:28:59;10.60;99.90
4701;DHT22;8724;51.272;6.554;2023-04-24T09:31:28;10.60;99.90
4701;DHT22;8724;51.272;6.554;2023-04-24T09:33:59;10.60;99.90
4701;DHT22;8724;51.272;6.554;2023-04-24T09:36:31;10.70;99.90
4701;DHT22;8724;51.272;6.554;2023-04-24T09:39:01;10.90;99.90
4701;DHT22;8724;51.272;6.554;2023-04-24T09:41:32;10.70;99.90
4701;DHT22;8724;51.272;6.554;2023-04-24T09:44:11;10.60;99.90
4701;DHT22;8724;51.272;6.554;2023-04-24T09:46:41;10.70;99.90
4701;DHT22;8724;51.272;6.554;2023-04-24T09:49:13;10.80;99.90
4701;DHT22;8724;51.272;6.554;2023-04-24T09:51:43;10.90;99.90
4701;DHT22;8724;51.272;6.554;2023-04-24T09:54:14;10.90;99.90
4701;DHT22;8724;51.272;6.554;2023-04-24T09:56:45;11.00;99.90
4701;DHT22;8724;51.272;6.554;2023-04-24T09:59:13;11.10;99.90
4701;DHT22;8724;51.272;6.554;2023-04-24T10:01:42;11.10;99.90
4701;DHT22;8724;51.272;6.554;2023-04-24T10:04:20;11.20;99.90
4701;DHT22;8724;51.272;6.554;2023-04-24T10:06:52;11.20;99.90
4701;DHT22;8724;51.272;6.554;2023-04-24T10:09:23;11.50;99.90
4701;DHT22;8724;51.272;6.554;2023-04-24T10:11:52;11.30;99.90
4701;DHT22;8724;51.272;6.554;2023-04-24T10:14:23;11.30;99.90
4701;DHT22;8724;51.272;6.554;2023-04-24T10:16:54;11.30;99.90
4701;DHT22;8724;51.272;6.554;2023-04-24T10:19:25;11.30;99.90
4701;DHT22;8724;51.272;6.554;2023-04-24T10:21:56;11.40;99.90
4701;DHT22;8724;51.272;6.554;2023-04-24T10:24:25;11.30;99.90
4701;DHT22;8724;51.272;6.554;2023-04-24T10:26:54;11.30;99.90
4701;DHT22;8724;51.272;6.554;2023-04-24T10:29:24;11.30;99.90
4701;DHT22;8724;51.272;6.554;2023-04-24T10:31:53;11.30;99.90
4701;DHT22;8724;51.272;6.554;2023-04-24T10:34:22;11.30;99.90
4701;DHT22;8724;51.272;6.554;2023-04-24T10:36:52;11.30;99.90
4701;DHT22;8724;51.272;6.554;2023-04-24T10:39:25;11.30;99.90
4701;DHT22;8724;51.272;6.554;2023-04-24T10:41:54;11.20;99.90
4701;DHT22;8724;51.272;6.554;2023-04-24T10:44:24;11.20;99.90
4701;DHT22;8724;51.272;6.554;2023-04-24T10:46:55;11.20;99.90
4701;DHT22;8724;51.272;6.554;2023-04-24T10:49:32;11.30;99.90
4701;DHT22;8724;51.272;6.554;2023-04-24T10:52:02;11.20;99.90
4701;DHT22;8724;51.272;6.554;2023-04-24T10:54:40;11.20;99.90
4701;DHT22;8724;51.272;6.554;2023-04-24T10:57:36;11.20;99.90
4701;DHT22;8724;51.272;6.554;2023-04-24T11:00:14;11.20;99.90
4701;DHT22;8724;51.272;6.554;2023-04-24T11:02:46;11.30;99.90
4701;DHT22;8724;51.272;6.554;2023-04-24T11:05:18;11.50;99.90
4701;DHT22;8724;51.272;6.554;2023-04-24T11:08:12;11.20;99.90
4701;DHT22;8724;51.272;6.554;2023-04-24T11:10:44;11.20;99.90
4701;DHT22;8724;51.272;6.554;2023-04-24T11:13:15;11.10;99.90
4701;DHT22;8724;51.272;6.554;2023-04-24T11:15:44;11.00;99.90
4701;DHT22;8724;51.272;6.554;2023-04-24T11:18:15;11.00;99.90
4701;DHT22;8724;51.272;6.554;2023-04-24T11:20:46;11.30;99.90
4701;DHT22;8724;51.272;6.554;2023-04-24T11:23:15;11.10;99.90
4701;DHT22;8724;51.272;6.554;2023-04-24T11:26:12;11.10;99.90
4701;DHT22;8724;51.272;6.554;2023-04-24T11:28:45;11.10;99.90
4701;DHT22;8724;51.272;6.554;2023-04-24T11:31:39;11.10;99.90
4701;DHT22;8724;51.272;6.554;2023-04-24T11:34:09;11.20;99.90
4701;DHT22;8724;51.272;6.554;2023-04-24T11:36:39;11.30;99.90
4701;DHT22;8724;51.272;6.554;2023-04-24T11:39:07;11.60;99.90
4701;DHT22;8724;51.272;6.554;2023-04-24T11:41:38;11.30;99.90
4701;DHT22;8724;51.272;6.554;2023-04-24T11:44:08;11.30;99.90
4701;DHT22;8724;51.272;6.554;2023-04-24T11:46:37;11.40;99.90
4701;DHT22;8724;51.272;6.554;2023-04-24T11:49:07;11.30;99.90
4701;DHT22;8724;51.272;6.554;2023-04-24T11:51:35;11.20;99.90
4701;DHT22;8724;51.272;6.554;2023-04-24T11:54:18;11.10;99.90
4701;DHT22;8724;51.272;6.554;2023-04-24T11:56:50;11.10;99.90
4701;DHT22;8724;51.272;6.554;2023-04-24T11:59:18;11.10;99.90
4701;DHT22;8724;51.272;6.554;2023-04-24T12:01:47;11.40;99.90
4701;DHT22;8724;51.272;6.554;2023-04-24T12:04:16;11.20;99.90
4701;DHT22;8724;51.272;6.554;2023-04-24T12:07:01;11.20;99.90
4701;DHT22;8724;51.272;6.554;2023-04-24T12:09:39;11.30;99.90
4701;DHT22;8724;51.272;6.554;2023-04-24T12:12:11;11.30;99.90
4701;DHT22;8724;51.272;6.554;2023-04-24T12:14:44;11.30;99.90
4701;DHT22;8724;51.272;6.554;2023-04-24T12:17:12;11.20;99.90
4701;DHT22;8724;51.272;6.554;2023-04-24T12:19:45;11.20;99.90
4701;DHT22;8724;51.272;6.554;2023-04-24T12:22:14;11.30;99.90
4701;DHT22;8724;51.272;6.554;2023-04-24T12:24:59;11.30;99.90
4701;DHT22;8724;51.272;6.554;2023-04-24T12:27:32;11.50;99.90
4701;DHT22;8724;51.272;6.554;2023-04-24T12:30:02;11.40;99.90
4701;DHT22;8724;51.272;6.554;2023-04-24T12:32:31;11.40;99.90
4701;DHT22;8724;51.272;6.554;2023-04-24T12:35:00;11.60;99.90
4701;DHT22;8724;51.272;6.554;2023-04-24T12:37:33;11.40;99.90
4701;DHT22;8724;51.272;6.554;2023-04-24T12:40:05;11.50;99.90
4701;DHT22;8724;51.272;6.554;2023-04-24T12:42:36;11.50;99.90
4701;DHT22;8724;51.272;6.554;2023-04-24T12:45:10;11.50;99.90
4701;DHT22;8724;51.272;6.554;2023-04-24T12:47:39;11.50;99.90
4701;DHT22;8724;51.272;6.554;2023-04-24T12:50:09;11.60;99.90
4701;DHT22;8724;51.272;6.554;2023-04-24T12:52:38;11.60;99.90
4701;DHT22;8724;51.272;6.554;2023-04-24T12:55:07;11.70;99.90
4701;DHT22;8724;51.272;6.554;2023-04-24T12:57:39;11.60;99.90
4701;DHT22;8724;51.272;6.554;2023-04-24T13:00:08;11.60;99.90
4701;DHT22;8724;51.272;6.554;2023-04-24T13:02:37;11.60;99.90
4701;DHT22;8724;51.272;6.554;2023-04-24T13:05:06;11.60;99.90
4701;DHT22;8724;51.272;6.554;2023-04-24T13:07:34;11.70;99.90
4701;DHT22;8724;51.272;6.554;2023-04-24T13:10:03;11.70;99.90
4701;DHT22;8724;51.272;6.554;2023-04-24T13:12:32;11.80;99.90
4701;DHT22;8724;51.272;6.554;2023-04-24T13:15:01;11.80;99.90
4701;DHT22;8724;51.272;6.554;2023-04-24T13:17:30;11.80;99.90
4701;DHT22;8724;51.272;6.554;2023-04-24T13:19:59;11.90;99.90
4701;DHT22;8724;51.272;6.554;2023-04-24T13:22:27;11.80;99.90
4701;DHT22;8724;51.272;6.554;2023-04-24T13:24:56;11.80;99.90
4701;DHT22;8724;51.272;6.554;2023-04-24T13:27:24;11.80;99.90
4701;DHT22;8724;51.272;6.554;2023-04-24T13:29:52;11.80;99.90
4701;DHT22;8724;51.272;6.554;2023-04-24T13:32:22;11.80;99.90
4701;DHT22;8724;51.272;6.554;2023-04-24T13:34:50;11.90;99.90
4701;DHT22;8724;51.272;6.554;2023-04-24T13:37:18;11.80;99.90
4701;DHT22;8724;51.272;6.554;2023-04-24T13:39:47;11.80;99.90
4701;DHT22;8724;51.272;6.554;2023-04-24T13:42:15;11.80;99.90
4701;DHT22;8724;51.272;6.554;2023-04-24T13:44:43;11.80;99.90
4701;DHT22;8724;51.272;6.554;2023-04-24T13:47:12;11.80;99.90
4701;DHT22;8724;51.272;6.554;2023-04-24T13:49:41;11.90;99.90
4701;DHT22;8724;51.272;6.554;2023-04-24T13:52:10;11.90;99.90
4701;DHT22;8724;51.272;6.554;2023-04-24T13:54:38;11.90;99.90
4701;DHT22;8724;51.272;6.554;2023-04-24T13:57:06;11.90;99.90
4701;DHT22;8724;51.272;6.554;2023-04-24T13:59:35;12.00;99.90
4701;DHT22;8724;51.272;6.554;2023-04-24T14:02:04;12.00;99.90
4701;DHT22;8724;51.272;6.554;2023-04-24T14:04:32;12.00;99.90
4701;DHT22;8724;51.272;6.554;2023-04-24T14:07:02;12.00;99.90
4701;DHT22;8724;51.272;6.554;2023-04-24T14:09:30;12.00;99.90
4701;DHT22;8724;51.272;6.554;2023-04-24T14:11:59;12.10;99.90
4701;DHT22;8724;51.272;6.554;2023-04-24T14:14:28;12.10;99.90
4701;DHT22;8724;51.272;6.554;2023-04-24T14:16:57;12.10;99.90
4701;DHT22;8724;51.272;6.554;2023-04-24T14:19:26;12.10;99.90
4701;DHT22;8724;51.272;6.554;2023-04-24T14:21:54;12.10;99.90
4701;DHT22;8724;51.272;6.554;2023-04-24T14:24:26;12.10;99.90
4701;DHT22;8724;51.272;6.554;2023-04-24T14:26:54;12.20;99.90
4701;DHT22;8724;51.272;6.554;2023-04-24T14:29:23;12.10;99.90
4701;DHT22;8724;51.272;6.554;2023-04-24T14:31:52;12.10;99.90
4701;DHT22;8724;51.272;6.554;2023-04-24T14:34:21;12.20;99.90
4701;DHT22;8724;51.272;6.554;2023-04-24T14:36:49;12.20;99.90
4701;DHT22;8724;51.272;6.554;2023-04-24T14:39:17;12.20;99.90
4701;DHT22;8724;51.272;6.554;2023-04-24T14:41:47;12.20;99.90
4701;DHT22;8724;51.272;6.554;2023-04-24T14:44:15;12.20;99.90
4701;DHT22;8724;51.272;6.554;2023-04-24T14:46:44;12.20;99.90
4701;DHT22;8724;51.272;6.554;2023-04-24T14:49:12;12.20;99.90
4701;DHT22;8724;51.272;6.554;2023-04-24T14:51:41;12.20;99.90
4701;DHT22;8724;51.272;6.554;2023-04-24T14:54:10;12.10;99.90
4701;DHT22;8724;51.272;6.554;2023-04-24T14:56:39;12.20;99.90
4701;DHT22;8724;51.272;6.554;2023-04-24T14:59:09;12.20;99.90
4701;DHT22;8724;51.272;6.554;2023-04-24T15:01:38;12.20;99.90
4701;DHT22;8724;51.272;6.554;2023-04-24T15:04:07;12.20;99.90
4701;DHT22;8724;51.272;6.554;2023-04-24T15:06:35;12.20;99.90
4701;DHT22;8724;51.272;6.554;2023-04-24T15:09:03;12.20;99.90
4701;DHT22;8724;51.272;6.554;2023-04-24T15:11:32;12.20;99.90
4701;DHT22;8724;51.272;6.554;2023-04-24T15:14:01;12.20;99.90
4701;DHT22;8724;51.272;6.554;2023-04-24T15:16:31;12.30;99.90
4701;DHT22;8724;51.272;6.554;2023-04-24T15:19:00;12.30;99.90
4701;DHT22;8724;51.272;6.554;2023-04-24T15:21:28;12.30;99.90
4701;DHT22;8724;51.272;6.554;2023-04-24T15:23:57;12.30;99.90
4701;DHT22;8724;51.272;6.554;2023-04-24T15:26:25;12.40;99.90
4701;DHT22;8724;51.272;6.554;2023-04-24T15:28:54;12.40;99.90
4701;DHT22;8724;51.272;6.554;2023-04-24T15:31:22;12.50;99.90
4701;DHT22;8724;51.272;6.554;2023-04-24T15:33:52;12.50;99.90
4701;DHT22;8724;51.272;6.554;2023-04-24T15:36:20;12.60;99.90
4701;DHT22;8724;51.272;6.554;2023-04-24T15:38:49;12.60;99.90
4701;DHT22;8724;51.272;6.554;2023-04-24T15:41:18;12.60;99.90
4701;DHT22;8724;51.272;6.554;2023-04-24T15:43:46;12.60;99.90
4701;DHT22;8724;51.272;6.554;2023-04-24T15:46:15;12.60;99.90
4701;DHT22;8724;51.272;6.554;2023-04-24T15:48:44;12.50;99.90
4701;DHT22;8724;51.272;6.554;2023-04-24T15:51:13;12.60;99.90
4701;DHT22;8724;51.272;6.554;2023-04-24T15:53:42;12.70;99.90
4701;DHT22;8724;51.272;6.554;2023-04-24T15:56:10;12.40;99.90
4701;DHT22;8724;51.272;6.554;2023-04-24T15:58:39;12.40;99.90
4701;DHT22;8724;51.272;6.554;2023-04-24T16:01:07;12.40;99.90
4701;DHT22;8724;51.272;6.554;2023-04-24T16:03:36;12.40;99.90
4701;DHT22;8724;51.272;6.554;2023-04-24T16:06:05;12.50;99.90
4701;DHT22;8724;51.272;6.554;2023-04-24T16:08:35;12.50;99.90
4701;DHT22;8724;51.272;6.554;2023-04-24T16:11:04;12.60;99.90
4701;DHT22;8724;51.272;6.554;2023-04-24T16:13:32;12.70;99.90
4701;DHT22;8724;51.272;6.554;2023-04-24T16:16:01;12.70;99.90
4701;DHT22;8724;51.272;6.554;2023-04-24T16:18:29;12.70;99.90
4701;DHT22;8724;51.272;6.554;2023-04-24T16:20:57;12.70;99.90